createdAt,value
2022-08-20T00:00:29.009Z,0.00
2022-08-20T00:01:29.045Z,0.00
2022-08-20T00:02:28.981Z,0.00
2022-08-20T00:03:28.973Z,0.00
2022-08-20T00:04:28.981Z,0.00
2022-08-20T00:05:28.954Z,0.00
2022-08-20T00:06:28.936Z,0.00
2022-08-20T00:07:28.926Z,0.00
2022-08-20T00:08:28.922Z,0.00
2022-08-20T00:09:29.895Z,0.00
2022-08-20T00:10:28.911Z,0.00
2022-08-20T00:11:29.088Z,0.00
2022-08-20T00:12:28.869Z,0.00
2022-08-20T00:13:28.861Z,0.00
2022-08-20T00:14:28.871Z,0.00
2022-08-20T00:15:28.858Z,0.00
2022-08-20T00:16:28.827Z,0.00
2022-08-20T00:17:28.819Z,0.00
2022-08-20T00:18:28.811Z,0.00
2022-08-20T00:19:28.815Z,0.00
2022-08-20T00:20:28.783Z,0.00
2022-08-20T00:21:28.774Z,0.00
2022-08-20T00:22:28.762Z,0.00
2022-08-20T00:23:28.753Z,0.00
2022-08-20T00:24:28.757Z,0.00
2022-08-20T00:25:28.747Z,0.00
2022-08-20T00:26:28.713Z,0.00
2022-08-20T00:27:28.708Z,0.00
2022-08-20T00:28:28.693Z,0.00
2022-08-20T00:29:28.705Z,0.00
2022-08-20T00:30:28.670Z,0.00
2022-08-20T00:31:28.663Z,0.00
2022-08-20T00:32:28.648Z,0.00
2022-08-20T00:33:28.644Z,0.00
2022-08-20T00:34:28.649Z,0.00
2022-08-20T00:35:28.625Z,0.00
2022-08-20T00:36:32.487Z,0.00
2022-08-20T00:37:28.594Z,0.00
2022-08-20T00:38:28.582Z,0.00
2022-08-20T00:39:28.573Z,0.00
2022-08-20T00:40:28.577Z,0.00
2022-08-20T00:41:28.547Z,0.00
2022-08-20T00:42:28.534Z,0.00
2022-08-20T00:43:28.528Z,0.00
2022-08-20T00:44:28.537Z,0.00
2022-08-20T00:45:28.506Z,0.00
2022-08-20T00:46:32.059Z,0.00
2022-08-20T00:47:28.484Z,0.00
2022-08-20T00:48:28.474Z,0.00
2022-08-20T00:49:28.463Z,0.00
2022-08-20T00:50:28.470Z,0.00
2022-08-20T00:51:30.022Z,0.00
2022-08-20T00:52:28.447Z,0.00
2022-08-20T00:53:28.415Z,0.00
2022-08-20T00:54:28.406Z,0.00
2022-08-20T00:55:31.521Z,0.00
2022-08-20T00:56:28.381Z,0.00
2022-08-20T00:57:28.374Z,0.00
2022-08-20T00:58:29.357Z,0.00
2022-08-20T00:59:28.357Z,0.00
2022-08-20T01:00:28.357Z,0.00
2022-08-20T01:01:28.381Z,0.00
2022-08-20T01:02:28.312Z,0.00
2022-08-20T01:03:28.307Z,0.00
2022-08-20T01:04:28.315Z,0.00
2022-08-20T01:05:29.918Z,0.00
2022-08-20T01:06:28.273Z,0.00
2022-08-20T01:07:28.283Z,0.00
2022-08-20T01:08:28.258Z,0.00
2022-08-20T01:09:50.189Z,0.00
2022-08-20T01:10:29.251Z,0.00
2022-08-20T01:11:28.242Z,0.00
2022-08-20T01:12:29.211Z,0.00
2022-08-20T01:13:28.194Z,0.00
2022-08-20T01:14:28.182Z,0.00
2022-08-20T01:15:31.019Z,0.00
2022-08-20T01:16:28.285Z,0.00
2022-08-20T01:17:28.151Z,0.00
2022-08-20T01:18:28.139Z,0.00
2022-08-20T01:19:29.209Z,0.00
2022-08-20T01:20:28.112Z,0.00
2022-08-20T01:21:28.105Z,0.00
2022-08-20T01:22:28.113Z,0.00
2022-08-20T01:23:28.101Z,0.00
2022-08-20T01:24:28.070Z,0.00
2022-08-20T01:25:28.061Z,0.00
2022-08-20T01:26:28.078Z,0.00
2022-08-20T01:27:28.038Z,0.00
2022-08-20T01:28:28.185Z,0.00
2022-08-20T01:29:38.672Z,0.00
2022-08-20T01:30:28.006Z,0.00
2022-08-20T01:31:28.016Z,0.00
2022-08-20T01:32:27.984Z,0.00
2022-08-20T01:33:27.992Z,0.00
2022-08-20T01:34:27.960Z,0.00
2022-08-20T01:35:27.949Z,0.00
2022-08-20T01:36:27.966Z,0.00
2022-08-20T01:37:31.374Z,0.00
2022-08-20T01:38:27.917Z,0.00
2022-08-20T01:39:27.904Z,0.00
2022-08-20T01:40:27.899Z,0.00
2022-08-20T01:41:28.320Z,0.00
2022-08-20T01:42:27.883Z,0.00
2022-08-20T01:43:27.861Z,0.00
2022-08-20T01:44:27.850Z,0.00
2022-08-20T01:45:27.984Z,0.00
2022-08-20T01:46:27.849Z,0.00
2022-08-20T01:47:27.819Z,0.00
2022-08-20T01:48:27.804Z,0.00
2022-08-20T01:49:27.793Z,0.00
2022-08-20T01:50:27.821Z,0.00
2022-08-20T01:51:27.773Z,0.00
2022-08-20T01:52:27.761Z,0.00
2022-08-20T01:53:27.748Z,0.00
2022-08-20T01:54:27.766Z,0.00
2022-08-20T01:55:27.731Z,0.00
2022-08-20T01:56:27.718Z,0.00
2022-08-20T01:57:27.727Z,0.00
2022-08-20T01:58:27.695Z,0.00
2022-08-20T01:59:27.685Z,0.00
2022-08-20T02:00:27.695Z,0.00
2022-08-20T02:01:27.707Z,0.00
2022-08-20T02:02:27.657Z,0.00
2022-08-20T02:03:27.637Z,0.00
2022-08-20T02:04:27.628Z,0.00
2022-08-20T02:05:30.679Z,0.00
2022-08-20T02:06:27.627Z,0.00
2022-08-20T02:07:27.591Z,0.00
2022-08-20T02:08:27.604Z,0.00
2022-08-20T02:09:27.650Z,0.00
2022-08-20T02:10:27.574Z,0.00
2022-08-20T02:11:27.569Z,0.00
2022-08-20T02:12:27.542Z,0.00
2022-08-20T02:13:27.523Z,0.00
2022-08-20T02:14:27.534Z,0.00
2022-08-20T02:15:34.980Z,0.00
2022-08-20T02:16:28.513Z,0.00
2022-08-20T02:17:27.481Z,0.00
2022-08-20T02:18:27.474Z,0.00
2022-08-20T02:19:27.460Z,0.00
2022-08-20T02:20:27.450Z,0.00
2022-08-20T02:21:27.457Z,0.00
2022-08-20T02:22:27.427Z,0.00
2022-08-20T02:23:27.416Z,0.00
2022-08-20T02:24:27.404Z,0.00
2022-08-20T02:25:27.395Z,0.00
2022-08-20T02:26:27.403Z,0.00
2022-08-20T02:27:27.369Z,0.00
2022-08-20T02:28:27.390Z,0.00
2022-08-20T02:29:27.352Z,0.00
2022-08-20T02:30:27.811Z,0.00
2022-08-20T02:31:29.880Z,0.00
2022-08-20T02:32:33.702Z,0.00
2022-08-20T02:33:28.301Z,0.00
2022-08-20T02:34:27.293Z,0.00
2022-08-20T02:35:27.280Z,0.00
2022-08-20T02:36:27.270Z,0.00
2022-08-20T02:37:27.279Z,0.00
2022-08-20T02:38:27.246Z,0.00
2022-08-20T02:39:27.237Z,0.00
2022-08-20T02:40:30.879Z,0.00
2022-08-20T02:41:27.214Z,0.00
2022-08-20T02:42:27.230Z,0.00
2022-08-20T02:43:27.188Z,0.00
2022-08-20T02:44:27.182Z,0.00
2022-08-20T02:45:27.168Z,0.00
2022-08-20T02:46:27.180Z,0.00
2022-08-20T02:47:27.147Z,0.00
2022-08-20T02:48:27.158Z,0.00
2022-08-20T02:49:27.126Z,0.00
2022-08-20T02:50:27.114Z,0.00
2022-08-20T02:51:30.350Z,0.00
2022-08-20T02:52:27.112Z,0.00
2022-08-20T02:53:27.076Z,0.00
2022-08-20T02:54:27.076Z,0.00
2022-08-20T02:55:28.245Z,0.00
2022-08-20T02:56:27.056Z,0.00
2022-08-20T02:57:27.052Z,0.00
2022-08-20T02:58:27.025Z,0.00
2022-08-20T02:59:27.011Z,0.00
2022-08-20T03:00:27.087Z,0.00
2022-08-20T03:01:27.047Z,0.00
2022-08-20T03:02:27.005Z,0.00
2022-08-20T03:03:26.968Z,0.00
2022-08-20T03:04:26.957Z,0.00
2022-08-20T03:05:26.945Z,0.00
2022-08-20T03:06:26.957Z,0.00
2022-08-20T03:07:26.921Z,0.00
2022-08-20T03:08:26.911Z,0.00
2022-08-20T03:09:26.897Z,0.00
2022-08-20T03:10:26.916Z,0.00
2022-08-20T03:11:26.878Z,0.00
2022-08-20T03:12:26.869Z,0.00
2022-08-20T03:13:26.861Z,0.00
2022-08-20T03:14:26.846Z,0.00
2022-08-20T03:15:26.855Z,0.00
2022-08-20T03:16:26.824Z,0.00
2022-08-20T03:17:26.811Z,0.00
2022-08-20T03:18:26.823Z,0.00
2022-08-20T03:19:26.789Z,0.00
2022-08-20T03:20:26.779Z,0.00
2022-08-20T03:21:26.766Z,0.00
2022-08-20T03:22:26.779Z,0.00
2022-08-20T03:23:26.744Z,0.00
2022-08-20T03:24:26.758Z,0.00
2022-08-20T03:25:26.720Z,0.00
2022-08-20T03:26:26.713Z,0.00
2022-08-20T03:27:29.954Z,0.00
2022-08-20T03:28:27.687Z,0.00
2022-08-20T03:29:26.699Z,0.00
2022-08-20T03:30:26.664Z,0.00
2022-08-20T03:31:26.678Z,0.00
2022-08-20T03:32:26.662Z,0.00
2022-08-20T03:33:26.656Z,0.00
2022-08-20T03:34:26.620Z,0.00
2022-08-20T03:35:26.613Z,0.00
2022-08-20T03:36:28.775Z,0.00
2022-08-20T03:37:26.587Z,0.00
2022-08-20T03:38:32.791Z,0.00
2022-08-20T03:39:27.587Z,0.00
2022-08-20T03:40:26.579Z,0.00
2022-08-20T03:41:26.545Z,0.00
2022-08-20T03:42:26.537Z,0.00
2022-08-20T03:43:26.522Z,0.00
2022-08-20T03:44:26.510Z,0.00
2022-08-20T03:45:26.506Z,0.00
2022-08-20T03:46:26.512Z,0.00
2022-08-20T03:47:26.477Z,4.00
2022-08-20T03:48:26.465Z,4.00
2022-08-20T03:49:26.454Z,0.00
2022-08-20T03:50:26.446Z,4.00
2022-08-20T03:51:26.457Z,4.00
2022-08-20T03:52:26.419Z,4.00
2022-08-20T03:53:26.431Z,4.00
2022-08-20T03:54:31.493Z,4.00
2022-08-20T03:55:27.421Z,8.00
2022-08-20T03:56:26.377Z,8.00
2022-08-20T03:57:26.391Z,12.00
2022-08-20T03:58:31.609Z,12.00
2022-08-20T03:59:27.343Z,16.00
2022-08-20T04:00:26.355Z,16.00
2022-08-20T04:01:45.079Z,16.00
2022-08-20T04:02:27.307Z,16.00
2022-08-20T04:03:26.305Z,20.00
2022-08-20T04:04:26.285Z,24.00
2022-08-20T04:05:28.274Z,24.00
2022-08-20T04:06:26.349Z,24.00
2022-08-20T04:07:26.254Z,24.00
2022-08-20T04:08:26.239Z,28.00
2022-08-20T04:09:26.252Z,28.00
2022-08-20T04:10:26.222Z,28.00
2022-08-20T04:11:26.208Z,32.00
2022-08-20T04:12:26.219Z,32.00
2022-08-20T04:13:26.197Z,36.00
2022-08-20T04:14:26.178Z,36.00
2022-08-20T04:15:26.166Z,40.00
2022-08-20T04:16:26.175Z,48.00
2022-08-20T04:17:26.163Z,48.00
2022-08-20T04:18:26.127Z,52.00
2022-08-20T04:19:26.144Z,56.00
2022-08-20T04:20:26.186Z,60.00
2022-08-20T04:21:26.203Z,68.00
2022-08-20T04:22:27.108Z,72.00
2022-08-20T04:23:26.098Z,80.00
2022-08-20T04:24:31.935Z,84.00
2022-08-20T04:25:27.076Z,88.00
2022-08-20T04:26:26.042Z,96.00
2022-08-20T04:27:26.029Z,104.00
2022-08-20T04:28:26.021Z,112.00
2022-08-20T04:29:26.014Z,116.00
2022-08-20T04:30:26.993Z,124.00
2022-08-20T04:31:26.018Z,128.00
2022-08-20T04:32:25.979Z,140.00
2022-08-20T04:33:33.862Z,144.00
2022-08-20T04:34:26.953Z,156.00
2022-08-20T04:35:25.941Z,164.00
2022-08-20T04:36:25.929Z,172.00
2022-08-20T04:37:25.921Z,180.00
2022-08-20T04:38:25.931Z,188.00
2022-08-20T04:39:26.896Z,196.00
2022-08-20T04:40:25.887Z,208.00
2022-08-20T04:41:25.878Z,212.00
2022-08-20T04:42:25.888Z,216.00
2022-08-20T04:43:25.850Z,224.00
2022-08-20T04:44:25.842Z,236.00
2022-08-20T04:45:25.830Z,244.00
2022-08-20T04:46:26.197Z,248.00
2022-08-20T04:47:34.545Z,252.00
2022-08-20T04:48:26.795Z,252.00
2022-08-20T04:49:25.787Z,256.00
2022-08-20T04:50:25.773Z,260.00
2022-08-20T04:51:26.943Z,264.00
2022-08-20T04:52:25.759Z,272.00
2022-08-20T04:53:26.041Z,276.00
2022-08-20T04:54:25.732Z,284.00
2022-08-20T04:55:25.718Z,292.00
2022-08-20T04:56:25.704Z,300.00
2022-08-20T04:57:25.702Z,308.00
2022-08-20T04:58:25.703Z,316.00
2022-08-20T04:59:25.676Z,324.00
2022-08-20T05:00:25.667Z,332.00
2022-08-20T05:01:25.689Z,340.00
2022-08-20T05:02:25.637Z,356.00
2022-08-20T05:03:25.652Z,368.00
2022-08-20T05:04:25.642Z,380.00
2022-08-20T05:05:25.604Z,400.00
2022-08-20T05:06:25.675Z,416.00
2022-08-20T05:07:25.607Z,436.00
2022-08-20T05:08:25.576Z,460.00
2022-08-20T05:09:25.585Z,488.00
2022-08-20T05:10:25.550Z,512.00
2022-08-20T05:11:35.444Z,540.00
2022-08-20T05:12:26.524Z,576.00
2022-08-20T05:13:27.517Z,608.00
2022-08-20T05:14:25.505Z,648.00
2022-08-20T05:15:25.495Z,684.00
2022-08-20T05:16:25.508Z,720.00
2022-08-20T05:17:25.504Z,756.00
2022-08-20T05:18:25.461Z,792.00
2022-08-20T05:19:25.454Z,828.00
2022-08-20T05:20:25.443Z,868.00
2022-08-20T05:21:25.427Z,904.00
2022-08-20T05:22:25.417Z,944.00
2022-08-20T05:23:26.425Z,992.00
2022-08-20T05:24:25.416Z,1040.00
2022-08-20T05:25:25.385Z,1100.00
2022-08-20T05:26:25.371Z,1156.00
2022-08-20T05:27:25.382Z,1212.00
2022-08-20T05:28:25.375Z,1260.00
2022-08-20T05:29:25.365Z,1304.00
2022-08-20T05:30:25.327Z,1348.00
2022-08-20T05:31:32.092Z,1384.00
2022-08-20T05:32:26.302Z,1412.00
2022-08-20T05:33:25.295Z,1440.00
2022-08-20T05:34:25.302Z,1472.00
2022-08-20T05:35:25.271Z,1496.00
2022-08-20T05:36:25.281Z,1512.00
2022-08-20T05:37:25.248Z,1528.00
2022-08-20T05:38:25.238Z,1540.00
2022-08-20T05:39:25.248Z,1556.00
2022-08-20T05:40:25.275Z,1556.00
2022-08-20T05:41:28.992Z,1564.00
2022-08-20T05:42:25.191Z,1552.00
2022-08-20T05:43:25.184Z,1492.00
2022-08-20T05:44:25.192Z,1484.00
2022-08-20T05:45:25.163Z,1440.00
2022-08-20T05:46:25.148Z,1340.00
2022-08-20T05:47:25.139Z,1252.00
2022-08-20T05:48:25.131Z,1220.00
2022-08-20T05:49:25.140Z,1208.00
2022-08-20T05:50:25.105Z,1184.00
2022-08-20T05:51:25.092Z,1160.00
2022-08-20T05:52:25.083Z,1156.00
2022-08-20T05:53:25.093Z,1176.00
2022-08-20T05:54:25.062Z,1200.00
2022-08-20T05:55:25.050Z,1228.00
2022-08-20T05:56:27.115Z,1308.00
2022-08-20T05:57:25.049Z,1424.00
2022-08-20T05:58:25.011Z,1524.00
2022-08-20T05:59:25.014Z,1588.00
2022-08-20T06:00:24.993Z,1664.00
2022-08-20T06:01:25.026Z,1692.00
2022-08-20T06:02:24.973Z,1656.00
2022-08-20T06:03:24.967Z,1592.00
2022-08-20T06:04:25.033Z,1492.00
2022-08-20T06:05:24.939Z,1428.00
2022-08-20T06:06:45.214Z,1404.00
2022-08-20T06:07:25.920Z,1352.00
2022-08-20T06:08:24.908Z,1304.00
2022-08-20T06:09:32.004Z,1256.00
2022-08-20T06:10:25.906Z,1200.00
2022-08-20T06:11:24.873Z,1132.00
2022-08-20T06:12:24.861Z,1096.00
2022-08-20T06:13:24.851Z,1084.00
2022-08-20T06:14:24.863Z,1092.00
2022-08-20T06:15:24.831Z,1128.00
2022-08-20T06:16:24.826Z,1300.00
2022-08-20T06:17:24.807Z,1544.00
2022-08-20T06:18:28.341Z,1644.00
2022-08-20T06:19:25.145Z,1632.00
2022-08-20T06:20:24.772Z,1532.00
2022-08-20T06:21:24.762Z,1380.00
2022-08-20T06:22:24.890Z,1260.00
2022-08-20T06:23:24.742Z,1244.00
2022-08-20T06:24:24.748Z,1332.00
2022-08-20T06:25:24.721Z,1364.00
2022-08-20T06:26:26.565Z,1344.00
2022-08-20T06:27:25.696Z,1380.00
2022-08-20T06:28:24.685Z,1460.00
2022-08-20T06:29:24.706Z,1544.00
2022-08-20T06:30:24.661Z,1664.00
2022-08-20T06:31:24.669Z,1752.00
2022-08-20T06:32:32.037Z,1836.00
2022-08-20T06:33:25.629Z,1928.00
2022-08-20T06:34:24.645Z,2044.00
2022-08-20T06:35:24.610Z,2168.00
2022-08-20T06:36:24.597Z,2300.00
2022-08-20T06:37:31.684Z,2464.00
2022-08-20T06:38:25.573Z,2628.00
2022-08-20T06:39:24.564Z,2792.00
2022-08-20T06:40:24.573Z,2932.00
2022-08-20T06:41:35.727Z,3020.00
2022-08-20T06:42:25.528Z,3044.00
2022-08-20T06:43:24.518Z,2972.00
2022-08-20T06:44:24.536Z,2808.00
2022-08-20T06:45:24.598Z,2604.00
2022-08-20T06:46:24.525Z,2416.00
2022-08-20T06:47:24.476Z,2256.00
2022-08-20T06:48:24.461Z,2132.00
2022-08-20T06:49:24.488Z,2044.00
2022-08-20T06:50:24.467Z,1992.00
2022-08-20T06:51:24.430Z,1956.00
2022-08-20T06:52:42.849Z,1940.00
2022-08-20T06:53:25.415Z,1928.00
2022-08-20T06:54:29.253Z,1928.00
2022-08-20T06:55:25.408Z,1960.00
2022-08-20T06:56:24.376Z,2016.00
2022-08-20T06:57:24.364Z,2096.00
2022-08-20T06:58:36.739Z,2132.00
2022-08-20T06:59:25.342Z,2116.00
2022-08-20T07:00:24.355Z,1936.00
2022-08-20T07:01:24.449Z,1548.00
2022-08-20T07:02:30.137Z,1328.00
2022-08-20T07:03:25.328Z,1308.00
2022-08-20T07:04:24.288Z,1532.00
2022-08-20T07:05:24.276Z,1800.00
2022-08-20T07:06:24.296Z,1948.00
2022-08-20T07:07:24.258Z,1996.00
2022-08-20T07:08:24.264Z,2012.00
2022-08-20T07:09:24.233Z,2040.00
2022-08-20T07:10:24.224Z,2076.00
2022-08-20T07:11:28.229Z,2108.00
2022-08-20T07:12:24.213Z,2140.00
2022-08-20T07:13:24.188Z,2164.00
2022-08-20T07:14:24.176Z,2156.00
2022-08-20T07:15:24.166Z,2128.00
2022-08-20T07:16:24.175Z,2124.00
2022-08-20T07:17:24.356Z,2168.00
2022-08-20T07:18:28.716Z,2256.00
2022-08-20T07:19:25.149Z,2340.00
2022-08-20T07:20:24.147Z,2396.00
2022-08-20T07:21:24.121Z,2424.00
2022-08-20T07:22:24.091Z,2440.00
2022-08-20T07:23:24.106Z,2480.00
2022-08-20T07:24:24.071Z,2504.00
2022-08-20T07:25:25.055Z,2436.00
2022-08-20T07:26:24.082Z,2240.00
2022-08-20T07:27:24.034Z,2060.00
2022-08-20T07:28:24.046Z,1908.00
2022-08-20T07:29:24.020Z,1904.00
2022-08-20T07:30:24.063Z,2008.00
2022-08-20T07:31:23.990Z,2076.00
2022-08-20T07:32:23.980Z,2132.00
2022-08-20T07:33:24.998Z,2276.00
2022-08-20T07:34:23.955Z,2460.00
2022-08-20T07:35:23.944Z,2540.00
2022-08-20T07:36:23.934Z,2532.00
2022-08-20T07:37:23.925Z,2424.00
2022-08-20T07:38:23.955Z,2248.00
2022-08-20T07:39:23.923Z,2056.00
2022-08-20T07:40:26.136Z,1968.00
2022-08-20T07:41:23.913Z,1988.00
2022-08-20T07:42:23.868Z,2216.00
2022-08-20T07:43:23.878Z,2432.00
2022-08-20T07:44:31.066Z,2456.00
2022-08-20T07:45:24.861Z,2676.00
2022-08-20T07:46:23.824Z,2864.00
2022-08-20T07:47:24.813Z,3236.00
2022-08-20T07:48:31.016Z,3508.00
2022-08-20T07:49:24.791Z,3516.00
2022-08-20T07:50:24.748Z,3296.00
2022-08-20T07:51:23.871Z,3056.00
2022-08-20T07:52:23.761Z,3100.00
2022-08-20T07:53:23.748Z,3136.00
2022-08-20T07:54:23.757Z,3032.00
2022-08-20T07:55:23.794Z,2964.00
2022-08-20T07:56:24.169Z,2944.00
2022-08-20T07:57:24.239Z,3068.00
2022-08-20T07:58:24.239Z,3084.00
2022-08-20T07:59:24.701Z,3156.00
2022-08-20T08:00:23.777Z,3376.00
2022-08-20T08:01:23.817Z,3812.00
2022-08-20T08:02:23.754Z,4076.00
2022-08-20T08:03:40.587Z,3868.00
2022-08-20T08:04:24.628Z,3504.00
2022-08-20T08:05:23.827Z,3084.00
2022-08-20T08:06:29.989Z,2692.00
2022-08-20T08:07:24.614Z,2444.00
2022-08-20T08:08:23.593Z,2308.00
2022-08-20T08:09:23.592Z,2272.00
2022-08-20T08:10:23.570Z,2352.00
2022-08-20T08:11:23.847Z,2624.00
2022-08-20T08:12:23.543Z,3204.00
2022-08-20T08:13:23.528Z,3552.00
2022-08-20T08:14:23.807Z,3648.00
2022-08-20T08:15:23.521Z,3616.00
2022-08-20T08:16:23.499Z,3560.00
2022-08-20T08:17:23.482Z,3260.00
2022-08-20T08:18:23.477Z,3100.00
2022-08-20T08:19:23.788Z,3144.00
2022-08-20T08:20:23.450Z,3544.00
2022-08-20T08:21:23.439Z,4080.00
2022-08-20T08:22:23.428Z,4468.00
2022-08-20T08:23:31.487Z,4760.00
2022-08-20T08:24:28.315Z,5008.00
2022-08-20T08:25:23.395Z,5328.00
2022-08-20T08:26:23.386Z,5396.00
2022-08-20T08:27:23.393Z,5432.00
2022-08-20T08:28:23.363Z,5680.00
2022-08-20T08:29:23.351Z,5840.00
2022-08-20T08:30:23.362Z,6008.00
2022-08-20T08:31:23.334Z,5604.00
2022-08-20T08:32:23.317Z,5444.00
2022-08-20T08:33:23.308Z,5636.00
2022-08-20T08:34:23.317Z,5820.00
2022-08-20T08:35:23.308Z,5900.00
2022-08-20T08:36:23.271Z,6180.00
2022-08-20T08:37:23.284Z,6620.00
2022-08-20T08:38:23.253Z,7712.00
2022-08-20T08:39:23.242Z,7748.00
2022-08-20T08:40:23.334Z,9076.00
2022-08-20T08:41:23.219Z,9248.00
2022-08-20T08:42:23.214Z,9240.00
2022-08-20T08:43:23.197Z,9544.00
2022-08-20T08:44:23.227Z,9300.00
2022-08-20T08:45:23.192Z,9020.00
2022-08-20T08:46:23.166Z,8764.00
2022-08-20T08:47:23.152Z,9116.00
2022-08-20T08:48:23.150Z,8120.00
2022-08-20T08:49:23.158Z,7556.00
2022-08-20T08:50:43.829Z,6820.00
2022-08-20T08:51:24.144Z,6360.00
2022-08-20T08:52:23.099Z,6176.00
2022-08-20T08:53:23.090Z,6072.00
2022-08-20T08:54:23.094Z,5992.00
2022-08-20T08:55:23.085Z,5840.00
2022-08-20T08:56:23.056Z,5404.00
2022-08-20T08:57:23.042Z,5144.00
2022-08-20T08:58:23.034Z,5028.00
2022-08-20T08:59:23.047Z,4876.00
2022-08-20T09:00:23.013Z,5012.00
2022-08-20T09:01:54.849Z,5256.00
2022-08-20T09:02:24.076Z,5152.00
2022-08-20T09:03:22.975Z,4816.00
2022-08-20T09:04:22.990Z,4524.00
2022-08-20T09:05:22.953Z,4300.00
2022-08-20T09:06:22.943Z,4420.00
2022-08-20T09:07:22.933Z,4944.00
2022-08-20T09:08:22.921Z,5464.00
2022-08-20T09:09:22.927Z,5840.00
2022-08-20T09:10:23.480Z,6044.00
2022-08-20T09:11:22.889Z,6184.00
2022-08-20T09:12:22.878Z,6100.00
2022-08-20T09:13:22.867Z,6172.00
2022-08-20T09:14:22.893Z,6080.00
2022-08-20T09:15:22.845Z,6020.00
2022-08-20T09:16:22.836Z,6036.00
2022-08-20T09:17:22.827Z,6008.00
2022-08-20T09:18:22.816Z,5996.00
2022-08-20T09:19:22.805Z,5844.00
2022-08-20T09:20:27.018Z,5580.00
2022-08-20T09:21:22.782Z,5532.00
2022-08-20T09:22:22.794Z,5376.00
2022-08-20T09:23:22.761Z,5332.00
2022-08-20T09:24:22.756Z,5260.00
2022-08-20T09:25:22.758Z,5340.00
2022-08-20T09:26:22.734Z,5272.00
2022-08-20T09:27:23.713Z,5148.00
2022-08-20T09:28:22.711Z,5228.00
2022-08-20T09:29:22.697Z,5352.00
2022-08-20T09:30:22.705Z,6520.00
2022-08-20T09:31:22.679Z,5988.00
2022-08-20T09:32:22.662Z,5384.00
2022-08-20T09:33:22.654Z,5440.00
2022-08-20T09:34:22.721Z,5968.00
2022-08-20T09:35:22.630Z,6300.00
2022-08-20T09:36:31.855Z,7984.00
2022-08-20T09:37:23.604Z,8660.00
2022-08-20T09:38:22.602Z,8756.00
2022-08-20T09:39:22.608Z,8252.00
2022-08-20T09:40:22.666Z,8292.00
2022-08-20T09:41:22.563Z,8440.00
2022-08-20T09:42:22.553Z,8488.00
2022-08-20T09:43:22.540Z,8064.00
2022-08-20T09:44:22.553Z,6708.00
2022-08-20T09:45:22.544Z,6960.00
2022-08-20T09:46:27.252Z,8340.00
2022-08-20T09:47:23.517Z,8164.00
2022-08-20T09:48:29.754Z,6516.00
2022-08-20T09:49:23.473Z,7316.00
2022-08-20T09:50:22.465Z,6892.00
2022-08-20T09:51:22.477Z,7724.00
2022-08-20T09:52:22.445Z,7732.00
2022-08-20T09:53:22.432Z,6708.00
2022-08-20T09:54:22.420Z,7512.00
2022-08-20T09:55:22.412Z,7488.00
2022-08-20T09:56:22.431Z,6136.00
2022-08-20T09:57:22.389Z,6104.00
2022-08-20T09:58:22.381Z,5960.00
2022-08-20T09:59:22.366Z,5860.00
2022-08-20T10:00:22.654Z,5560.00
2022-08-20T10:01:22.426Z,5236.00
2022-08-20T10:02:22.332Z,5128.00
2022-08-20T10:03:22.321Z,5200.00
2022-08-20T10:04:22.312Z,5408.00
2022-08-20T10:05:22.323Z,5756.00
2022-08-20T10:06:22.314Z,6116.00
2022-08-20T10:07:22.281Z,6572.00
2022-08-20T10:08:22.271Z,7028.00
2022-08-20T10:09:22.257Z,7416.00
2022-08-20T10:10:22.271Z,8464.00
2022-08-20T10:11:22.259Z,8284.00
2022-08-20T10:12:22.228Z,8524.00
2022-08-20T10:13:22.213Z,8176.00
2022-08-20T10:14:22.207Z,7848.00
2022-08-20T10:15:22.191Z,8644.00
2022-08-20T10:16:22.211Z,8536.00
2022-08-20T10:17:22.174Z,8632.00
2022-08-20T10:18:22.160Z,8732.00
2022-08-20T10:19:22.151Z,8992.00
2022-08-20T10:20:22.141Z,8844.00
2022-08-20T10:21:22.128Z,7496.00
2022-08-20T10:22:22.138Z,7516.00
2022-08-20T10:23:22.107Z,8552.00
2022-08-20T10:24:22.098Z,8820.00
2022-08-20T10:25:22.086Z,8716.00
2022-08-20T10:26:22.074Z,8656.00
2022-08-20T10:27:22.085Z,8120.00
2022-08-20T10:28:22.075Z,8684.00
2022-08-20T10:29:22.063Z,8892.00
2022-08-20T10:30:22.034Z,8708.00
2022-08-20T10:31:22.023Z,8880.00
2022-08-20T10:32:22.013Z,8984.00
2022-08-20T10:33:22.018Z,8656.00
2022-08-20T10:34:22.014Z,8824.00
2022-08-20T10:35:22.000Z,8900.00
2022-08-20T10:36:21.970Z,9172.00
2022-08-20T10:37:21.976Z,8700.00
2022-08-20T10:38:21.947Z,8536.00
2022-08-20T10:39:21.938Z,8500.00
2022-08-20T10:40:22.009Z,8436.00
2022-08-20T10:41:21.916Z,8348.00
2022-08-20T10:42:21.902Z,8236.00
2022-08-20T10:43:21.898Z,6948.00
2022-08-20T10:44:21.884Z,6884.00
2022-08-20T10:45:21.888Z,6876.00
2022-08-20T10:46:21.889Z,6920.00
2022-08-20T10:47:21.850Z,6940.00
2022-08-20T10:48:21.861Z,6972.00
2022-08-20T10:49:21.836Z,8772.00
2022-08-20T10:50:21.821Z,8616.00
2022-08-20T10:51:21.828Z,8020.00
2022-08-20T10:52:22.806Z,7664.00
2022-08-20T10:53:21.782Z,7584.00
2022-08-20T10:54:21.773Z,7568.00
2022-08-20T10:55:21.880Z,6812.00
2022-08-20T10:56:21.755Z,8056.00
2022-08-20T10:57:21.745Z,6208.00
2022-08-20T10:58:23.910Z,5880.00
2022-08-20T10:59:21.719Z,5804.00
2022-08-20T11:00:21.732Z,5648.00
2022-08-20T11:01:31.323Z,5520.00
2022-08-20T11:02:22.807Z,5372.00
2022-08-20T11:03:21.678Z,5208.00
2022-08-20T11:04:21.667Z,4876.00
2022-08-20T11:05:21.678Z,4484.00
2022-08-20T11:06:21.646Z,4248.00
2022-08-20T11:07:21.634Z,3872.00
2022-08-20T11:08:22.654Z,3560.00
2022-08-20T11:09:22.615Z,3256.00
2022-08-20T11:10:21.624Z,3116.00
2022-08-20T11:11:21.590Z,2916.00
2022-08-20T11:12:21.582Z,2588.00
2022-08-20T11:13:21.591Z,2304.00
2022-08-20T11:14:21.561Z,2144.00
2022-08-20T11:15:21.546Z,2164.00
2022-08-20T11:16:21.539Z,2268.00
2022-08-20T11:17:21.551Z,2436.00
2022-08-20T11:18:21.518Z,2680.00
2022-08-20T11:19:21.523Z,3080.00
2022-08-20T11:20:21.607Z,3480.00
2022-08-20T11:21:21.481Z,3772.00
2022-08-20T11:22:21.475Z,3912.00
2022-08-20T11:23:21.462Z,4020.00
2022-08-20T11:24:21.452Z,4120.00
2022-08-20T11:25:21.436Z,4216.00
2022-08-20T11:26:21.454Z,4424.00
2022-08-20T11:27:21.429Z,4736.00
2022-08-20T11:28:31.928Z,5096.00
2022-08-20T11:29:22.398Z,5576.00
2022-08-20T11:30:21.386Z,5984.00
2022-08-20T11:31:21.374Z,6400.00
2022-08-20T11:32:21.466Z,6664.00
2022-08-20T11:33:21.352Z,6988.00
2022-08-20T11:34:21.344Z,7148.00
2022-08-20T11:35:50.315Z,7076.00
2022-08-20T11:36:22.320Z,6888.00
2022-08-20T11:37:21.319Z,6704.00
2022-08-20T11:38:21.299Z,6640.00
2022-08-20T11:39:21.288Z,6896.00
2022-08-20T11:40:21.374Z,6656.00
2022-08-20T11:41:21.271Z,6948.00
2022-08-20T11:42:21.256Z,6956.00
2022-08-20T11:43:21.243Z,7660.00
2022-08-20T11:44:21.770Z,8432.00
2022-08-20T11:45:21.244Z,8260.00
2022-08-20T11:46:23.419Z,8224.00
2022-08-20T11:47:22.199Z,7928.00
2022-08-20T11:48:21.190Z,8484.00
2022-08-20T11:49:21.200Z,7304.00
2022-08-20T11:50:21.189Z,7236.00
2022-08-20T11:51:21.155Z,7284.00
2022-08-20T11:52:21.146Z,7360.00
2022-08-20T11:53:22.247Z,7608.00
2022-08-20T11:54:21.126Z,7596.00
2022-08-20T11:55:21.113Z,7576.00
2022-08-20T11:56:22.126Z,7828.00
2022-08-20T11:57:21.091Z,7876.00
2022-08-20T11:58:21.101Z,7400.00
2022-08-20T11:59:21.071Z,7048.00
2022-08-20T12:00:21.057Z,7116.00
2022-08-20T12:01:22.048Z,7160.00
2022-08-20T12:02:21.133Z,7220.00
2022-08-20T12:03:21.087Z,7476.00
2022-08-20T12:04:21.022Z,7140.00
2022-08-20T12:05:21.005Z,7416.00
2022-08-20T12:06:20.991Z,7856.00
2022-08-20T12:07:21.006Z,7772.00
2022-08-20T12:08:26.457Z,7908.00
2022-08-20T12:09:24.815Z,8124.00
2022-08-20T12:10:20.949Z,7772.00
2022-08-20T12:11:20.960Z,7656.00
2022-08-20T12:12:20.949Z,7428.00
2022-08-20T12:13:20.917Z,7076.00
2022-08-20T12:14:21.901Z,6668.00
2022-08-20T12:15:20.926Z,6888.00
2022-08-20T12:16:20.907Z,7052.00
2022-08-20T12:17:20.896Z,7380.00
2022-08-20T12:18:20.863Z,7660.00
2022-08-20T12:19:20.854Z,7684.00
2022-08-20T12:20:20.839Z,7588.00
2022-08-20T12:21:20.830Z,7304.00
2022-08-20T12:22:25.185Z,7100.00
2022-08-20T12:23:20.813Z,7104.00
2022-08-20T12:24:20.797Z,7040.00
2022-08-20T12:25:20.789Z,6728.00
2022-08-20T12:26:20.797Z,7028.00
2022-08-20T12:27:20.764Z,6992.00
2022-08-20T12:28:25.088Z,7076.00
2022-08-20T12:29:21.741Z,7144.00
2022-08-20T12:30:20.735Z,6780.00